Valle Piedras, Puerto Rico
Current Conditions -  °F | °C
As of 1:53 AM on Sunday 26 Oct 2014 (Local Time) from TJNR Reporting Station
Scattered Clouds Scattered Clouds  
Wind Chill: 80°   Ceiling: Unl
Heat Index: 85°   Visibility: 10mi
Dew Point: 74°   Wind: 0mph
Humidity: 81%   Direction: NA
Pressure: 29.89"   Gusts: NA
Location:  18.1853°N, 65.8667°W
Report Text: TJNR 260553Z AUTO 00000KT 10SM FEW055 SCT070 27/23 A2989 RMK AO2 SLP121 T02670233 10283 20267 58012 $
Loading
Personal Weather Stations






























Interactive Weather Map
Tropical Storm Tracking
New forecast layout! Learn more

10-Day Weather Forecast

Advertisements
Track Severe Weather on mobile